Ora, Mississippi
Current Conditions -  °F | °C
As of 12:35 PM on Saturday 20 Dec 2014 (Local Time) from KPIB Reporting Station
Overcast Overcast  
Wind Chill: 50°   Ceiling: 1300
Heat Index: 50°   Visibility: 10mi
Dew Point: 43°   Wind: 7mph
Humidity: 76%   Direction: 10°N
Pressure: 30.17"   Gusts: NA
Location:  31.6692°N, 89.543°W
Report Text: KPIB 201835Z AUTO 01006KT 10SM OVC013 10/06 A3017 RMK AO1
Loading
Personal Weather Stations






























Interactive Weather Map New forecast layout! Learn more

10-Day Weather Forecast

Advertisements
Track Severe Weather on mobile